Time;durP1;ratioP1;P1;durP2;ratioP2;P2;SDS_P1;SDS_P2;PMS_P1;PMS_P2;Temp;Humidity;BMP_temperature;BMP_pressure;BME280_temperature;BME280_humidity;BME280_pressure;Samples;Min_cycle;Max_cycle;Signal;HPM_P1;HPM_P2
2020/12/03 00:00:35;;;;;;;31.45;19.88;;;;;;;2.85;86.76;98983.78;5071431;28;20230;-63
2020/12/03 00:03:05;;;;;;;32.55;19.42;;;;;;;2.81;85.88;98970.66;5071819;28;20723;-62
2020/12/03 00:05:31;;;;;;;35.13;20.60;;;;;;;2.94;85.58;98977.25;5072045;28;20541;-61
2020/12/03 00:07:58;;;;;;;30.02;19.42;;;;;;;3.11;84.72;98971.28;5071813;28;20193;-62
2020/12/03 00:10:25;;;;;;;33.70;19.80;;;;;;;3.17;84.37;98962.22;5071280;28;20205;-62
2020/12/03 00:13:13;;;;;;;30.83;19.50;;;;;;;2.98;83.62;98959.38;5071672;28;20190;-63
2020/12/03 00:15:39;;;;;;;28.95;18.00;;;;;;;2.85;84.68;98951.88;5065214;28;20263;-63
2020/12/03 00:18:07;;;;;;;30.52;19.98;;;;;;;2.80;85.57;98944.97;5071492;28;20193;-63
2020/12/03 00:20:34;;;;;;;37.00;19.73;;;;;;;2.91;85.91;98951.63;5072094;28;20187;-62
2020/12/03 00:23:01;;;;;;;31.65;20.05;;;;;;;2.99;85.64;98943.38;5071528;28;20200;-62
2020/12/03 00:25:27;;;;;;;33.03;19.80;;;;;;;2.93;85.32;98944.44;5071754;28;20186;-62
2020/12/03 00:27:55;;;;;;;33.30;19.75;;;;;;;2.93;85.67;98931.16;5071944;28;20223;-62
2020/12/03 00:30:22;;;;;;;29.73;19.45;;;;;;;2.98;85.15;98930.97;5085321;28;20204;-62
2020/12/03 00:32:50;;;;;;;30.40;18.23;;;;;;;2.96;85.47;98922.19;5071259;28;20192;-63
2020/12/03 00:35:18;;;;;;;33.30;19.05;;;;;;;2.96;85.60;98922.19;5071398;28;20205;-62
2020/12/03 00:37:44;;;;;;;35.03;21.23;;;;;;;2.92;85.77;98915.28;5071541;28;20218;-62
2020/12/03 00:40:10;;;;;;;34.20;21.17;;;;;;;2.86;86.12;98910.19;5071592;28;20188;-62
2020/12/03 00:42:36;;;;;;;33.40;19.42;;;;;;;2.92;86.20;98921.47;5071513;28;20205;-63
2020/12/03 00:45:04;;;;;;;36.97;19.67;;;;;;;2.97;86.42;98912.44;5071356;28;20193;-62
2020/12/03 00:47:30;;;;;;;34.78;19.35;;;;;;;3.00;86.08;98902.53;5071729;28;20578;-63
2020/12/03 00:49:56;;;;;;;32.08;18.50;;;;;;;2.91;85.66;98902.91;5074380;28;20192;-62
2020/12/03 00:52:23;;;;;;;33.28;18.50;;;;;;;2.81;86.21;98901.53;5075252;28;20302;-62
2020/12/03 00:54:49;;;;;;;35.58;20.48;;;;;;;2.74;86.34;98895.56;5075621;28;20623;-63
2020/12/03 00:57:15;;;;;;;31.38;19.45;;;;;;;2.83;86.76;98889.91;5075603;28;20189;-63
2020/12/03 00:59:41;;;;;;;32.70;19.63;;;;;;;2.95;86.32;98891.22;5075117;28;20240;-62
2020/12/03 01:02:09;;;;;;;31.05;18.83;;;;;;;2.92;86.50;98888.69;5075440;28;20190;-62
2020/12/03 01:04:36;;;;;;;33.78;19.35;;;;;;;2.86;86.45;98896.88;5075527;28;20206;-62
2020/12/03 01:07:02;;;;;;;32.88;19.27;;;;;;;2.88;86.14;98887.94;5075138;28;20248;-62
2020/12/03 01:09:29;;;;;;;33.80;19.42;;;;;;;2.91;86.51;98889.59;5075789;28;20242;-62
2020/12/03 01:11:55;;;;;;;37.55;20.38;;;;;;;2.98;86.56;98887.56;5090213;28;20313;-62
2020/12/03 01:14:21;;;;;;;37.60;19.35;;;;;;;2.98;85.99;98887.56;5095270;28;20212;-62
2020/12/03 01:16:48;;;;;;;30.25;19.00;;;;;;;2.98;85.23;98877.78;5095636;28;20177;-62
2020/12/03 01:19:14;;;;;;;31.75;18.80;;;;;;;2.92;85.83;98870.94;5095381;28;20291;-62
2020/12/03 01:21:41;;;;;;;32.35;19.05;;;;;;;2.93;85.85;98870.00;5091197;28;20321;-62
2020/12/03 01:24:07;;;;;;;29.90;18.35;;;;;;;2.92;86.20;98864.75;5075117;28;20626;-62
2020/12/03 01:26:34;;;;;;;27.45;17.73;;;;;;;3.00;85.95;98857.31;5074697;28;20209;-62
2020/12/03 01:29:00;;;;;;;32.70;18.60;;;;;;;2.94;85.45;98865.56;5074921;28;20203;-63
2020/12/03 01:31:31;;;;;;;33.88;20.92;;;;;;;3.00;85.62;98853.81;5074175;28;20196;-62
2020/12/03 01:33:58;;;;;;;31.77;18.52;;;;;;;2.89;85.59;98852.44;5074347;28;20183;-62
2020/12/03 01:36:24;;;;;;;31.55;18.33;;;;;;;2.86;86.31;98851.69;5074831;28;20203;-63
2020/12/03 01:38:50;;;;;;;32.67;20.38;;;;;;;2.79;86.58;98844.88;5074587;28;20191;-62
2020/12/03 01:41:16;;;;;;;29.48;17.70;;;;;;;2.89;86.22;98851.56;5074552;28;20190;-63
2020/12/03 01:43:44;;;;;;;30.50;19.17;;;;;;;2.88;86.25;98844.53;5074748;28;20201;-63
2020/12/03 01:46:10;;;;;;;34.15;19.35;;;;;;;2.89;86.46;98839.16;5074774;28;20639;-63
2020/12/03 01:48:41;;;;;;;30.35;18.35;;;;;;;2.86;86.69;98825.09;5092540;28;20196;-62
2020/12/03 01:51:13;;;;;;;32.05;17.80;;;;;;;2.96;86.49;98821.13;5095109;28;20843;-62
2020/12/03 01:53:39;;;;;;;33.30;18.25;;;;;;;3.03;86.19;98821.75;5094820;28;20181;-62
2020/12/03 01:56:22;;;;;;;33.10;19.08;;;;;;;2.98;86.58;98819.28;5094723;28;20177;-62
2020/12/03 01:58:49;;;;;;;33.60;19.70;;;;;;;2.99;86.80;98820.19;5094491;28;20237;-62
2020/12/03 02:01:15;;;;;;;31.30;18.80;;;;;;;2.84;87.12;98808.34;5093423;28;20185;-62
2020/12/03 02:03:46;;;;;;;33.42;19.63;;;;;;;2.77;88.39;98797.06;5075271;28;20760;-62
2020/12/03 02:06:18;;;;;;;35.20;20.40;;;;;;;2.89;88.66;98798.38;5074371;28;20211;-63
2020/12/03 02:08:44;;;;;;;32.22;18.75;;;;;;;2.93;88.85;98792.88;5074438;28;20191;-62
2020/12/03 02:11:10;;;;;;;32.03;19.30;;;;;;;2.93;88.58;98787.56;5073278;28;20189;-62
2020/12/03 02:13:36;;;;;;;35.70;19.95;;;;;;;2.89;89.20;98787.75;5078265;28;20317;-63
2020/12/03 02:16:03;;;;;;;30.33;19.80;;;;;;;2.95;88.98;98787.50;5093852;28;20184;-62
2020/12/03 02:18:29;;;;;;;33.47;18.67;;;;;;;3.05;88.55;98788.00;5094442;28;20180;-62
2020/12/03 02:20:56;;;;;;;36.13;20.35;;;;;;;2.99;88.16;98772.31;5094100;28;20196;-63
2020/12/03 02:23:22;;;;;;;32.85;20.38;;;;;;;2.92;88.39;98774.34;5086561;28;20185;-62
2020/12/03 02:25:48;;;;;;;31.35;19.65;;;;;;;2.92;88.67;98756.59;5073938;28;20531;-62
2020/12/03 02:28:14;;;;;;;34.10;20.38;;;;;;;2.88;89.09;98756.78;5074080;28;20203;-62
2020/12/03 02:30:40;;;;;;;29.52;18.42;;;;;;;2.82;89.42;98751.69;5073701;28;20201;-62
2020/12/03 02:33:06;;;;;;;32.28;19.92;;;;;;;2.84;90.17;98753.38;5080094;28;20188;-62
2020/12/03 02:35:32;;;;;;;31.88;20.20;;;;;;;2.91;90.15;98748.66;5094167;28;20206;-62
2020/12/03 02:37:59;;;;;;;35.35;21.48;;;;;;;2.96;89.84;98741.34;5094216;28;20184;-63
2020/12/03 02:40:25;;;;;;;32.15;19.45;;;;;;;3.00;89.11;98731.47;5093918;28;20195;-62
2020/12/03 02:42:52;;;;;;;34.28;19.88;;;;;;;2.96;89.11;98732.53;5093933;28;20205;-63
2020/12/03 02:48:39;;;;;;;33.72;20.58;;;;;;;2.95;89.09;98718.38;5089228;28;20187;-63
2020/12/03 02:51:05;;;;;;;31.58;19.65;;;;;;;2.89;89.06;98715.94;5093342;28;20198;-63
2020/12/03 02:53:32;;;;;;;34.67;19.65;;;;;;;2.95;89.22;98718.38;5093841;28;20188;-62
2020/12/03 02:55:58;;;;;;;33.10;19.05;;;;;;;2.99;88.77;98705.81;5093909;28;20180;-63
2020/12/03 02:58:24;;;;;;;35.45;19.90;;;;;;;2.98;88.62;98709.41;5092437;28;20267;-62
2020/12/03 03:00:50;;;;;;;33.03;20.23;;;;;;;3.07;89.15;98704.53;5093845;28;20179;-62
2020/12/03 03:03:16;;;;;;;33.58;22.02;;;;;;;3.11;88.01;98706.16;5085565;28;20531;-62
2020/12/03 03:05:42;;;;;;;32.50;19.17;;;;;;;3.02;87.70;98697.72;5073056;28;20203;-62
2020/12/03 03:08:08;;;;;;;34.90;20.48;;;;;;;3.01;88.14;98699.50;5073392;28;20218;-62
2020/12/03 03:10:35;;;;;;;30.77;19.27;;;;;;;2.99;88.54;98701.38;5073065;28;20207;-63
2020/12/03 03:13:01;;;;;;;31.75;19.45;;;;;;;3.02;88.13;98690.59;5072743;28;20188;-63
2020/12/03 03:15:27;;;;;;;32.78;20.77;;;;;;;2.93;88.20;98690.97;5072811;28;20204;-62
2020/12/03 03:17:53;;;;;;;34.22;20.13;;;;;;;2.96;88.24;98692.63;5073260;28;20181;-63
2020/12/03 03:20:19;;;;;;;32.58;20.75;;;;;;;3.00;88.50;98686.25;5073072;28;20187;-63
2020/12/03 03:22:45;;;;;;;31.20;19.27;;;;;;;3.02;88.37;98692.38;5073243;28;20204;-63
2020/12/03 03:25:11;;;;;;;31.73;19.90;;;;;;;2.94;88.23;98695.38;5072829;28;20193;-63
2020/12/03 03:27:39;;;;;;;36.22;21.30;;;;;;;2.96;88.64;98693.50;5072811;28;20270;-62
2020/12/03 03:30:06;;;;;;;31.58;19.20;;;;;;;3.03;88.44;98697.66;5073024;28;20185;-63
2020/12/03 03:32:32;;;;;;;28.77;18.48;;;;;;;3.01;88.28;98694.19;5072331;28;20283;-62
2020/12/03 03:34:58;;;;;;;33.60;19.45;;;;;;;2.93;88.33;98693.63;5072037;28;20535;-62
2020/12/03 03:37:24;;;;;;;33.17;18.70;;;;;;;2.96;88.51;98680.19;5072610;28;20202;-62
2020/12/03 03:39:50;;;;;;;32.60;19.77;;;;;;;3.05;88.69;98685.16;5072267;28;20208;-62
2020/12/03 03:42:17;;;;;;;28.73;17.75;;;;;;;3.12;88.40;98683.97;5072217;28;20186;-61
2020/12/03 03:44:44;;;;;;;33.25;20.88;;;;;;;3.04;87.82;98691.38;5080924;28;20202;-62
2020/12/03 03:47:10;;;;;;;29.17;19.70;;;;;;;3.09;88.55;98684.06;5092630;28;20677;-62
2020/12/03 03:49:36;;;;;;;33.97;20.42;;;;;;;3.12;87.94;98680.41;5092358;28;20180;-63
2020/12/03 03:52:02;;;;;;;31.25;19.67;;;;;;;3.13;87.89;98679.50;5092414;28;20207;-63
2020/12/03 03:54:29;;;;;;;32.30;19.75;;;;;;;3.12;87.48;98673.31;5092690;28;20275;-62
2020/12/03 03:56:55;;;;;;;32.28;19.88;;;;;;;3.18;87.31;98668.66;5092175;28;20199;-63
2020/12/03 03:59:21;;;;;;;34.08;21.08;;;;;;;3.20;87.56;98666.81;5092460;28;20341;-62
2020/12/03 04:01:48;;;;;;;33.30;21.23;;;;;;;3.26;87.29;98678.06;5092063;28;20280;-63
2020/12/03 04:04:14;;;;;;;34.67;19.50;;;;;;;3.25;87.60;98670.97;5084752;28;20195;-62
2020/12/03 04:06:40;;;;;;;31.45;19.67;;;;;;;3.22;87.98;98663.16;5072164;28;20560;-63
2020/12/03 04:09:06;;;;;;;31.02;19.95;;;;;;;3.11;87.66;98665.41;5071869;28;20283;-63
2020/12/03 04:11:32;;;;;;;33.85;20.02;;;;;;;3.14;88.47;98659.94;5071815;28;20191;-63
2020/12/03 04:13:58;;;;;;;35.72;22.23;;;;;;;3.05;88.17;98665.66;5072138;28;20290;-62
2020/12/03 04:16:24;;;;;;;32.42;20.23;;;;;;;3.20;87.97;98653.50;5072288;28;20536;-63
2020/12/03 04:18:51;;;;;;;32.28;19.65;;;;;;;3.06;88.09;98659.41;5072085;28;20212;-63
2020/12/03 04:21:17;;;;;;;31.80;19.80;;;;;;;2.93;88.76;98651.94;5072421;28;20189;-61
2020/12/03 04:23:44;;;;;;;32.63;20.52;;;;;;;2.96;89.15;98648.28;5071665;28;20300;-62
2020/12/03 04:26:11;;;;;;;36.50;20.65;;;;;;;2.94;88.99;98658.16;5072193;28;20320;-63
2020/12/03 04:28:37;;;;;;;30.20;19.95;;;;;;;3.00;88.87;98649.88;5072295;28;20211;-63
2020/12/03 04:31:03;;;;;;;33.00;19.85;;;;;;;3.03;88.87;98647.13;5072125;28;20206;-63
2020/12/03 04:33:29;;;;;;;35.15;20.45;;;;;;;3.04;89.18;98648.84;5071665;28;20187;-63
2020/12/03 04:35:56;;;;;;;34.50;18.52;;;;;;;3.05;88.91;98649.69;5071832;28;20192;-63
2020/12/03 04:38:23;;;;;;;36.85;19.92;;;;;;;3.03;88.99;98644.47;5071825;28;20317;-62
2020/12/03 04:40:50;;;;;;;31.10;19.95;;;;;;;3.02;89.14;98640.06;5072038;28;20679;-63
2020/12/03 04:43:28;;;;;;;33.90;20.40;;;;;;;3.03;89.37;98631.16;5071876;28;20283;-63
2020/12/03 04:45:59;;;;;;;32.80;20.65;;;;;;;3.11;88.98;98623.69;5071930;28;20187;-63
2020/12/03 04:48:35;;;;;;;30.45;20.23;;;;;;;3.16;88.85;98628.81;5071931;28;20190;-62
2020/12/03 04:51:21;;;;;;;36.10;20.90;;;;;;;3.12;88.80;98619.25;5072066;28;20190;-62
2020/12/03 04:53:56;;;;;;;34.50;20.00;;;;;;;3.01;88.73;98618.84;5071401;28;20217;-63
2020/12/03 04:56:29;;;;;;;33.72;20.88;;;;;;;3.00;89.17;98603.81;5071853;28;20270;-63
2020/12/03 04:59:06;;;;;;;32.97;21.25;;;;;;;3.14;90.59;98604.09;5071589;28;20241;-63
2020/12/03 05:02:02;;;;;;;30.45;19.52;;;;;;;3.17;88.79;98597.78;5085782;28;20267;-62
2020/12/03 05:04:38;;;;;;;31.35;19.02;;;;;;;3.11;88.75;98593.59;5080534;28;20197;-62
2020/12/03 05:07:08;;;;;;;35.42;20.00;;;;;;;3.19;89.03;98591.47;5071163;28;20216;-62
2020/12/03 05:09:41;;;;;;;31.60;20.83;;;;;;;3.15;88.86;98589.00;5071527;28;20199;-62
2020/12/03 05:12:13;;;;;;;31.90;20.10;;;;;;;3.19;89.43;98587.91;5071198;28;20198;-61
2020/12/03 05:14:51;;;;;;;31.70;21.95;;;;;;;3.19;88.93;98587.91;5071556;28;20189;-62
2020/12/03 05:17:42;;;;;;;30.20;20.08;;;;;;;3.24;89.06;98585.94;5071733;28;20201;-62
2020/12/03 05:20:35;;;;;;;29.50;19.17;;;;;;;3.31;88.87;98584.72;5071699;28;20186;-63
2020/12/03 05:23:07;;;;;;;32.70;20.33;;;;;;;3.22;88.51;98577.16;5070584;27;20209;-62
2020/12/03 05:25:33;;;;;;;34.42;20.55;;;;;;;3.20;89.08;98577.22;5073153;28;20296;-63
2020/12/03 05:28:18;;;;;;;37.10;20.85;;;;;;;3.28;88.65;98564.44;5070705;28;20220;-63
2020/12/03 05:30:47;;;;;;;32.45;21.05;;;;;;;3.20;88.74;98566.59;5071106;28;20276;-63
2020/12/03 05:33:13;;;;;;;31.33;20.25;;;;;;;3.14;89.01;98564.19;5071039;28;20198;-63
2020/12/03 05:35:39;;;;;;;33.63;20.17;;;;;;;3.06;88.77;98572.50;5073089;28;20536;-63
2020/12/03 05:38:15;;;;;;;36.35;21.52;;;;;;;3.12;89.39;98561.63;5074398;28;20261;-63
2020/12/03 05:40:41;;;;;;;32.00;17.95;;;;;;;3.04;89.31;98553.09;5073179;28;20538;-62
2020/12/03 05:43:10;;;;;;;32.45;19.40;;;;;;;3.11;90.02;98549.22;5074401;28;20283;-63
2020/12/03 05:45:37;;;;;;;29.67;18.20;;;;;;;3.06;89.61;98547.72;5074173;28;20312;-63
2020/12/03 05:48:05;;;;;;;31.48;18.50;;;;;;;3.13;89.53;98558.00;5074570;28;20295;-62
2020/12/03 05:50:37;;;;;;;30.30;19.90;;;;;;;3.17;89.51;98563.22;5074011;28;20194;-63
2020/12/03 05:53:13;;;;;;;34.40;20.80;;;;;;;3.13;89.85;98559.81;5073975;28;20256;-62
2020/12/03 05:55:39;;;;;;;33.55;18.42;;;;;;;3.27;89.14;98556.53;5073817;28;20200;-63
2020/12/03 05:58:14;;;;;;;33.28;20.13;;;;;;;3.31;88.96;98544.81;5073837;28;20193;-63
2020/12/03 06:00:40;;;;;;;34.33;19.77;;;;;;;3.30;88.40;98538.66;5074082;28;20199;-63
2020/12/03 06:03:24;;;;;;;29.27;19.33;;;;;;;3.29;88.35;98542.22;5073898;28;20553;-62
2020/12/03 06:06:15;;;;;;;36.72;19.90;;;;;;;3.33;88.35;98532.31;5074272;28;20295;-63
2020/12/03 06:09:02;;;;;;;31.80;19.60;;;;;;;3.40;88.07;98536.41;5074045;28;20551;-63
2020/12/03 06:11:40;;;;;;;29.10;19.55;;;;;;;3.13;87.98;98536.72;5074097;28;20213;-63
2020/12/03 06:14:41;;;;;;;37.13;20.05;;;;;;;3.15;88.95;98533.16;5073540;28;20284;-63
2020/12/03 06:17:21;;;;;;;32.53;19.23;;;;;;;3.21;88.86;98535.50;5073258;28;20206;-62
2020/12/03 06:20:00;;;;;;;35.90;21.50;;;;;;;3.07;89.10;98547.63;5073472;28;20216;-63
2020/12/03 06:22:44;;;;;;;32.47;20.00;;;;;;;3.18;89.95;98538.31;5073041;28;20196;-62
2020/12/03 06:25:24;;;;;;;36.75;21.48;;;;;;;3.24;89.80;98527.41;5085694;28;20196;-63
2020/12/03 06:28:07;;;;;;;33.63;20.67;;;;;;;3.32;89.56;98526.13;5079297;28;20208;-62
2020/12/03 06:30:40;;;;;;;34.95;20.67;;;;;;;3.33;89.04;98529.66;5081098;28;20275;-63
2020/12/03 06:33:32;;;;;;;28.23;18.98;;;;;;;3.42;88.13;98521.25;5072884;28;20273;-63
2020/12/03 06:36:04;;;;;;;30.75;19.23;;;;;;;3.38;87.76;98519.66;5064759;28;20320;-63
2020/12/03 06:38:38;;;;;;;30.17;18.25;;;;;;;3.41;87.94;98519.50;5082387;28;20271;-64
2020/12/03 06:41:33;;;;;;;30.95;19.20;;;;;;;3.49;87.38;98525.34;5074659;28;20198;-62
2020/12/03 06:44:13;;;;;;;31.95;19.73;;;;;;;3.32;87.51;98512.84;5072961;28;20280;-62
2020/12/03 06:47:11;;;;;;;31.48;19.60;;;;;;;3.38;87.69;98511.66;5071958;28;20216;-63
2020/12/03 06:49:54;;;;;;;31.90;18.38;;;;;;;3.50;86.42;98513.75;5071814;28;20194;-63
2020/12/03 06:52:59;;;;;;;32.97;20.67;;;;;;;3.39;86.88;98510.72;5052663;28;20287;-62
2020/12/03 06:55:56;;;;;;;33.55;18.63;;;;;;;3.31;87.28;98499.59;5052831;28;20282;-63
2020/12/03 06:59:20;;;;;;;32.30;19.27;;;;;;;3.42;86.95;98497.31;5077101;28;20311;-63
2020/12/03 07:02:20;;;;;;;34.30;19.70;;;;;;;3.35;87.51;98490.53;5044467;28;20189;-63
2020/12/03 07:05:17;;;;;;;37.10;20.08;;;;;;;3.33;87.21;98473.78;5083915;28;20292;-63
2020/12/03 07:08:08;;;;;;;39.33;25.95;;;;;;;3.48;86.88;98459.75;5093088;28;20244;-62
2020/12/03 07:11:01;;;;;;;34.17;19.92;;;;;;;3.39;86.77;98462.84;5076292;28;20191;-62
2020/12/03 07:14:01;;;;;;;28.75;19.15;;;;;;;3.38;86.86;98460.25;5072818;28;20298;-62
2020/12/03 07:17:12;;;;;;;30.35;19.80;;;;;;;3.45;87.03;98456.38;5047018;28;20244;-63
2020/12/03 07:19:55;;;;;;;33.58;19.83;;;;;;;3.52;86.51;98461.31;5072502;28;20182;-62
2020/12/03 07:22:26;;;;;;;30.70;18.80;;;;;;;3.53;85.79;98448.91;5052771;28;20191;-62
2020/12/03 07:24:56;;;;;;;30.77;20.55;;;;;;;3.69;85.40;98444.56;5052529;28;20604;-61
2020/12/03 07:27:59;;;;;;;28.67;19.30;;;;;;;3.55;85.51;98441.72;5052591;28;20268;-63
2020/12/03 07:30:36;;;;;;;33.83;20.27;;;;;;;3.36;86.09;98440.84;5068747;28;20193;-63
2020/12/03 07:33:12;;;;;;;30.17;19.80;;;;;;;3.26;87.41;98432.44;5072591;28;20282;-62
2020/12/03 07:35:49;;;;;;;30.88;19.17;;;;;;;3.29;87.22;98422.50;5084230;28;20205;-63
2020/12/03 07:38:22;;;;;;;34.08;19.50;;;;;;;3.23;87.39;98413.94;5072140;28;20279;-62
2020/12/03 07:40:51;;;;;;;31.63;19.15;;;;;;;3.28;87.13;98409.28;5071905;28;20193;-63
2020/12/03 07:43:20;;;;;;;33.90;19.83;;;;;;;3.39;86.81;98408.75;5072064;28;20243;-63
2020/12/03 07:45:49;;;;;;;34.65;20.25;;;;;;;3.41;86.60;98402.41;5071742;28;20207;-63
2020/12/03 07:48:19;;;;;;;34.08;19.70;;;;;;;3.31;86.91;98402.00;5088994;28;20208;-62
2020/12/03 07:50:51;;;;;;;33.30;20.85;;;;;;;3.42;87.20;98405.97;5073738;28;20614;-62
2020/12/03 07:53:23;;;;;;;33.03;20.35;;;;;;;3.49;86.56;98399.41;5075557;28;20220;-62
2020/12/03 07:55:49;;;;;;;30.77;19.80;;;;;;;3.41;86.36;98386.47;5072387;28;20203;-63
2020/12/03 07:58:37;;;;;;;39.35;21.92;;;;;;;3.59;86.23;98381.19;5070271;28;20276;-62
2020/12/03 08:01:05;;;;;;;33.33;20.48;;;;;;;3.72;85.84;98374.31;5070134;28;20252;-62
2020/12/03 08:03:46;;;;;;;35.17;20.98;;;;;;;3.72;85.48;98371.66;5072323;28;20190;-63
2020/12/03 08:06:19;;;;;;;35.15;19.85;;;;;;;3.47;85.46;98372.00;5072095;28;20234;-63
2020/12/03 08:08:47;;;;;;;36.88;21.00;;;;;;;3.43;85.98;98363.31;5071969;28;20272;-62
2020/12/03 08:11:46;;;;;;;31.95;19.60;;;;;;;3.60;85.62;98364.28;5072007;28;20260;-63
2020/12/03 08:14:37;;;;;;;31.15;20.25;;;;;;;3.64;85.43;98358.75;5070878;28;20250;-62
2020/12/03 08:17:05;;;;;;;30.73;20.52;;;;;;;3.72;85.18;98363.66;5064324;28;20280;-63
2020/12/03 08:19:34;;;;;;;29.33;18.23;;;;;;;3.75;85.05;98367.06;5071758;28;20608;-63
2020/12/03 08:22:01;;;;;;;32.38;19.48;;;;;;;3.71;85.09;98364.63;5071307;28;20238;-63
2020/12/03 08:24:29;;;;;;;34.75;22.13;;;;;;;3.57;85.73;98365.28;5089166;28;20436;-62
2020/12/03 08:26:56;;;;;;;33.80;23.38;;;;;;;3.54;85.83;98368.97;5083250;28;20875;-63
2020/12/03 08:29:46;;;;;;;32.70;22.58;;;;;;;3.62;85.82;98359.72;5070480;28;20430;-63
2020/12/03 08:32:12;;;;;;;36.20;22.05;;;;;;;3.68;85.91;98362.94;5054340;28;20230;-63
2020/12/03 08:34:41;;;;;;;36.10;22.60;;;;;;;3.76;85.84;98359.91;5091412;28;20234;-63
2020/12/03 08:37:10;;;;;;;31.60;19.98;;;;;;;4.14;84.13;98367.78;5091353;28;20445;-63
2020/12/03 08:39:37;;;;;;;32.63;21.55;;;;;;;4.08;83.40;98371.59;5091491;28;20190;-63
2020/12/03 08:42:05;;;;;;;36.47;20.75;;;;;;;4.16;83.32;98368.53;5086709;28;20195;-62
2020/12/03 08:44:31;;;;;;;35.85;23.73;;;;;;;4.18;83.18;98377.31;5083606;28;20218;-63
2020/12/03 08:47:02;;;;;;;39.88;25.58;;;;;;;4.30;83.50;98384.69;5070686;28;20208;-63
2020/12/03 08:49:28;;;;;;;36.22;23.77;;;;;;;4.17;83.17;98379.13;5071035;28;20187;-62
2020/12/03 08:51:58;;;;;;;31.55;19.42;;;;;;;4.24;83.17;98373.47;5071011;28;20275;-62
2020/12/03 08:54:25;;;;;;;28.02;19.05;;;;;;;4.23;83.26;98369.06;5083030;28;20273;-63
2020/12/03 08:56:56;;;;;;;34.33;19.35;;;;;;;4.29;82.83;98372.28;5091164;28;20230;-62
2020/12/03 08:59:28;;;;;;;31.65;19.40;;;;;;;4.29;82.28;98350.97;5091146;28;20709;-63
2020/12/03 09:02:05;;;;;;;30.45;17.45;;;;;;;4.42;80.54;98361.84;5089685;28;20288;-62
2020/12/03 09:04:34;;;;;;;30.27;18.35;;;;;;;4.38;81.14;98352.28;5060895;28;20213;-62
2020/12/03 09:07:04;;;;;;;32.05;19.38;;;;;;;4.23;81.44;98345.97;5083153;28;20303;-63
2020/12/03 09:09:30;;;;;;;27.52;17.42;;;;;;;4.35;80.69;98350.66;5080748;28;20539;-63
2020/12/03 09:11:57;;;;;;;28.58;17.15;;;;;;;4.18;81.63;98345.34;5095588;28;20292;-62
2020/12/03 09:14:25;;;;;;;30.13;17.58;;;;;;;4.22;81.54;98341.56;5095552;28;20180;-63
2020/12/03 09:16:57;;;;;;;30.73;18.60;;;;;;;4.37;81.64;98335.44;5083872;28;20274;-63
2020/12/03 09:19:24;;;;;;;28.77;19.20;;;;;;;4.46;81.29;98331.44;5074618;28;20274;-64
2020/12/03 09:21:51;;;;;;;28.17;16.45;;;;;;;4.43;81.18;98331.56;5083020;28;20614;-62
2020/12/03 09:24:22;;;;;;;28.38;18.20;;;;;;;4.53;80.95;98334.63;5076648;28;20290;-62
2020/12/03 09:26:49;;;;;;;26.48;16.50;;;;;;;4.47;80.20;98333.13;5074536;28;20209;-63
2020/12/03 09:29:15;;;;;;;26.63;17.27;;;;;;;4.67;80.10;98325.88;5074975;28;20283;-63
2020/12/03 09:31:41;;;;;;;28.05;19.30;;;;;;;4.65;80.08;98327.78;5074761;28;20279;-63
2020/12/03 09:34:09;;;;;;;27.85;17.67;;;;;;;4.67;79.72;98321.41;5074762;28;20181;-63
2020/12/03 09:36:37;;;;;;;28.45;17.50;;;;;;;4.60;80.43;98320.03;5074632;28;20223;-62
2020/12/03 09:39:04;;;;;;;31.45;18.58;;;;;;;4.56;80.78;98319.31;5083803;28;20225;-62
2020/12/03 09:41:32;;;;;;;27.38;16.65;;;;;;;4.83;80.13;98315.25;5076827;28;20196;-63
2020/12/03 09:44:03;;;;;;;26.23;17.20;;;;;;;4.78;80.26;98305.69;5086033;28;20932;-63
2020/12/03 09:46:33;;;;;;;29.00;17.73;;;;;;;4.59;80.56;98302.31;5090665;28;20192;-63
2020/12/03 09:49:01;;;;;;;27.67;16.33;;;;;;;4.64;80.69;98294.94;5081219;28;20218;-63
2020/12/03 09:51:27;;;;;;;32.45;19.85;;;;;;;4.57;81.00;98283.72;5084216;28;20586;-63
2020/12/03 09:53:54;;;;;;;30.63;18.15;;;;;;;4.64;81.05;98286.06;5074219;28;20621;-63
2020/12/03 09:56:20;;;;;;;24.48;16.42;;;;;;;4.79;80.19;98269.19;5074310;28;20199;-62
2020/12/03 09:58:57;;;;;;;29.55;17.70;;;;;;;4.79;80.41;98263.88;5074061;28;20254;-62
2020/12/03 10:01:42;;;;;;;24.95;16.20;;;;;;;4.77;80.52;98245.31;5085405;28;20221;-62
2020/12/03 10:04:30;;;;;;;27.95;18.20;;;;;;;4.92;79.59;98246.22;5074645;28;20192;-62
2020/12/03 10:07:06;;;;;;;26.27;16.35;;;;;;;4.99;79.74;98242.25;5074162;28;20265;-62
2020/12/03 10:10:02;;;;;;;34.35;19.98;;;;;;;4.95;80.51;98237.19;5086211;28;20866;-62
2020/12/03 10:12:45;;;;;;;29.70;17.85;;;;;;;4.90;80.60;98225.94;5076255;28;20628;-63
2020/12/03 10:15:18;;;;;;;25.27;16.23;;;;;;;4.83;80.82;98205.91;5073611;28;20203;-61
2020/12/03 10:18:03;;;;;;;26.02;16.50;;;;;;;4.90;80.91;98191.25;5074217;28;20190;-62
2020/12/03 10:20:30;;;;;;;22.63;15.23;;;;;;;5.15;79.22;98182.69;5073404;28;20628;-63
2020/12/03 10:23:14;;;;;;;23.58;16.23;;;;;;;5.08;79.71;98176.00;5071707;28;20436;-62
2020/12/03 10:25:41;;;;;;;23.75;15.05;;;;;;;4.95;79.82;98174.06;5073715;28;20279;-62
2020/12/03 10:28:17;;;;;;;25.30;16.13;;;;;;;4.59;81.04;98177.88;5073567;28;20635;-62
2020/12/03 10:30:45;;;;;;;24.20;13.52;;;;;;;4.93;81.40;98170.63;5073570;28;20275;-63
2020/12/03 10:33:13;;;;;;;22.55;14.50;;;;;;;5.15;80.49;98167.53;5072867;28;20200;-63
2020/12/03 10:35:43;;;;;;;20.92;14.55;;;;;;;5.23;80.31;98159.94;5073284;28;20283;-62
2020/12/03 10:38:14;;;;;;;23.05;15.40;;;;;;;5.42;79.18;98164.19;5073096;28;20193;-62
2020/12/03 10:40:41;;;;;;;26.45;16.30;;;;;;;5.40;78.90;98166.97;5073364;28;20311;-62
2020/12/03 10:43:12;;;;;;;25.23;15.80;;;;;;;5.40;78.79;98174.09;5086798;28;20194;-62
2020/12/03 10:45:45;;;;;;;22.45;15.02;;;;;;;5.34;79.11;98178.00;5092654;28;20188;-62
2020/12/03 10:48:20;;;;;;;21.40;13.85;;;;;;;5.36;78.81;98173.44;5091905;28;20204;-62
2020/12/03 10:50:56;;;;;;;23.77;15.07;;;;;;;5.21;79.74;98167.19;5081531;28;20197;-62
2020/12/03 10:53:23;;;;;;;22.60;13.60;;;;;;;5.05;80.28;98154.84;5093869;28;20648;-62
2020/12/03 10:55:58;;;;;;;19.73;12.85;;;;;;;5.14;80.32;98155.16;5091898;28;20231;-63
2020/12/03 10:58:38;;;;;;;34.33;19.88;;;;;;;5.06;80.75;98137.88;5074268;28;20277;-64
2020/12/03 11:01:13;;;;;;;21.10;13.18;;;;;;;5.27;80.56;98138.41;5073031;28;20198;-62
2020/12/03 11:03:41;;;;;;;19.67;13.13;;;;;;;5.42;79.53;98127.66;5072304;28;20192;-63
2020/12/03 11:06:08;;;;;;;21.98;13.10;;;;;;;5.38;80.30;98119.94;5072792;28;20583;-62
2020/12/03 11:08:37;;;;;;;19.77;13.38;;;;;;;5.41;79.68;98109.09;5090127;28;20212;-61
2020/12/03 11:11:04;;;;;;;18.92;11.48;;;;;;;5.44;80.28;98109.75;5092558;28;20195;-63
2020/12/03 11:13:31;;;;;;;19.15;11.95;;;;;;;5.47;79.72;98102.50;5082960;28;20288;-62
2020/12/03 11:16:01;;;;;;;24.10;14.27;;;;;;;5.69;79.29;98094.03;5072624;28;20299;-62
2020/12/03 11:18:28;;;;;;;18.85;11.50;;;;;;;5.68;79.24;98090.53;5072700;28;20223;-62
2020/12/03 11:21:00;;;;;;;21.83;12.25;;;;;;;5.50;79.31;98089.84;5072368;28;20260;-61
2020/12/03 11:23:29;;;;;;;19.30;11.90;;;;;;;5.43;80.13;98088.50;5072527;28;20257;-62
2020/12/03 11:26:04;;;;;;;16.50;10.75;;;;;;;5.44;79.94;98072.38;5072591;28;20662;-63
2020/12/03 11:28:34;;;;;;;23.13;15.80;;;;;;;5.51;80.71;98064.84;5072609;28;20208;-62
2020/12/03 11:31:03;;;;;;;21.63;13.55;;;;;;;5.53;80.58;98067.44;5072566;28;20612;-62
2020/12/03 11:33:31;;;;;;;18.60;11.77;;;;;;;5.43;80.78;98054.66;5072879;28;20181;-62
2020/12/03 11:36:15;;;;;;;18.23;11.70;;;;;;;5.45;80.27;98062.59;5091231;28;20215;-62
2020/12/03 11:38:51;;;;;;;17.13;11.00;;;;;;;5.37;80.77;98054.19;5090641;28;20641;-63
2020/12/03 11:41:28;;;;;;;19.77;11.75;;;;;;;5.41;81.08;98039.69;5093020;28;20678;-63
2020/12/03 11:44:31;;;;;;;18.50;12.07;;;;;;;5.41;80.99;98018.34;5090746;28;20191;-63
2020/12/03 11:49:42;;;;;;;19.83;11.38;;;;;;;5.41;81.25;98002.34;5072265;28;20203;-62
2020/12/03 11:52:16;;;;;;;18.30;11.10;;;;;;;5.49;80.60;98002.69;5072456;28;20193;-62